createdAt,value
2018-07-09T00:00:42.005Z,17.10
2018-07-09T00:03:18.371Z,17.10
2018-07-09T00:05:50.219Z,17.00
2018-07-09T00:08:21.051Z,17.00
2018-07-09T00:10:58.668Z,16.90
2018-07-09T00:13:29.957Z,16.90
2018-07-09T00:16:00.730Z,16.80
2018-07-09T00:18:31.410Z,16.70
2018-07-09T00:21:02.220Z,16.70
2018-07-09T00:23:32.931Z,16.60
2018-07-09T00:26:04.499Z,16.60
2018-07-09T00:28:35.232Z,16.60
2018-07-09T00:31:06.071Z,16.60
2018-07-09T00:33:36.765Z,16.60
2018-07-09T00:36:07.447Z,16.60
2018-07-09T00:38:38.215Z,16.50
2018-07-09T00:41:08.939Z,16.40
2018-07-09T00:43:39.740Z,16.50
2018-07-09T00:46:10.457Z,16.40
2018-07-09T00:51:10.995Z,16.20
2018-07-09T00:53:41.824Z,16.10
2018-07-09T00:56:12.571Z,16.10
2018-07-09T00:58:43.328Z,16.00
2018-07-09T01:01:14.068Z,15.90
2018-07-09T01:03:44.811Z,15.90
2018-07-09T01:06:15.584Z,15.80
2018-07-09T01:08:46.267Z,15.80
2018-07-09T01:11:27.663Z,15.90
2018-07-09T01:13:58.418Z,16.00
2018-07-09T01:16:29.240Z,16.10
2018-07-09T01:18:59.950Z,16.20
2018-07-09T01:21:30.628Z,16.30
2018-07-09T01:24:01.490Z,16.30
2018-07-09T01:26:32.255Z,16.20
2018-07-09T01:29:03.085Z,16.20
2018-07-09T01:31:33.727Z,16.10
2018-07-09T01:34:04.450Z,16.00
2018-07-09T01:36:35.191Z,15.90
2018-07-09T01:39:05.971Z,15.90
2018-07-09T01:41:36.744Z,15.80
2018-07-09T01:44:07.460Z,15.70
2018-07-09T01:46:38.165Z,15.60
2018-07-09T01:49:08.868Z,15.50
2018-07-09T01:51:39.583Z,15.50
2018-07-09T01:54:10.283Z,15.50
2018-07-09T01:56:40.911Z,15.40
2018-07-09T01:59:11.584Z,15.40
2018-07-09T02:01:42.444Z,15.30
2018-07-09T02:04:13.199Z,15.30
2018-07-09T02:06:44.028Z,15.20
2018-07-09T02:09:14.711Z,15.10
2018-07-09T02:11:45.479Z,15.10
2018-07-09T02:14:16.231Z,15.00
2018-07-09T02:16:46.848Z,14.90
2018-07-09T02:19:17.487Z,14.90
2018-07-09T02:21:48.160Z,14.90
2018-07-09T02:24:20.084Z,14.90
2018-07-09T02:26:50.710Z,14.80
2018-07-09T02:29:21.439Z,14.80
2018-07-09T02:31:52.146Z,14.80
2018-07-09T02:34:22.827Z,14.70
2018-07-09T02:36:53.743Z,14.70
2018-07-09T02:39:24.434Z,14.70
2018-07-09T02:41:55.281Z,14.70
2018-07-09T02:44:25.945Z,14.70
2018-07-09T02:46:56.544Z,14.80
2018-07-09T02:49:27.179Z,14.80
2018-07-09T02:51:57.946Z,14.80
2018-07-09T02:54:28.634Z,14.80
2018-07-09T02:57:02.469Z,14.90
2018-07-09T02:59:33.245Z,14.80
2018-07-09T03:02:03.937Z,14.80
2018-07-09T03:04:34.552Z,14.80
2018-07-09T03:07:05.389Z,14.70
2018-07-09T03:09:36.232Z,14.70
2018-07-09T03:12:07.000Z,14.60
2018-07-09T03:14:37.792Z,14.60
2018-07-09T03:17:08.478Z,14.50
2018-07-09T03:19:39.173Z,14.50
2018-07-09T03:22:09.798Z,14.50
2018-07-09T03:24:40.556Z,14.50
2018-07-09T03:27:11.406Z,14.50
2018-07-09T03:29:42.093Z,14.60
2018-07-09T03:32:12.875Z,14.60
2018-07-09T03:34:43.540Z,14.70
2018-07-09T03:37:14.356Z,14.70
2018-07-09T03:39:45.101Z,14.70
2018-07-09T03:42:15.890Z,14.60
2018-07-09T03:44:46.618Z,14.60
2018-07-09T03:47:17.315Z,14.70
2018-07-09T03:49:47.976Z,14.70
2018-07-09T03:52:18.800Z,14.80
2018-07-09T03:54:49.529Z,14.80
2018-07-09T03:57:20.245Z,14.90
2018-07-09T03:59:50.992Z,15.00
2018-07-09T04:02:21.710Z,15.10
2018-07-09T04:04:52.439Z,15.20
2018-07-09T04:07:23.127Z,15.30
2018-07-09T04:09:53.875Z,15.40
2018-07-09T04:12:24.506Z,15.50
2018-07-09T04:14:55.208Z,15.60
2018-07-09T04:17:25.962Z,15.60
2018-07-09T04:19:56.681Z,15.70
2018-07-09T04:22:27.415Z,15.80
2018-07-09T04:24:58.080Z,15.90
2018-07-09T04:27:28.927Z,16.20
2018-07-09T04:29:59.777Z,16.70
2018-07-09T04:32:30.490Z,17.20
2018-07-09T04:35:01.273Z,17.60
2018-07-09T04:37:31.922Z,17.90
2018-07-09T04:40:02.663Z,18.30
2018-07-09T04:42:33.530Z,18.70
2018-07-09T04:45:04.413Z,19.30
2018-07-09T04:47:36.075Z,19.70
2018-07-09T04:50:07.866Z,20.10
2018-07-09T04:52:38.571Z,20.50
2018-07-09T04:55:10.942Z,20.90
2018-07-09T04:57:41.729Z,21.30
2018-07-09T05:00:13.525Z,21.60
2018-07-09T05:02:44.360Z,22.10
2018-07-09T05:05:16.308Z,22.40
2018-07-09T05:07:48.107Z,22.80
2018-07-09T05:10:27.729Z,23.20
2018-07-09T05:12:58.524Z,23.50
2018-07-09T05:15:29.361Z,23.90
2018-07-09T05:18:00.822Z,24.20
2018-07-09T05:23:01.543Z,25.00
2018-07-09T05:25:32.133Z,25.20
2018-07-09T05:28:02.924Z,25.60
2018-07-09T05:30:33.747Z,25.90
2018-07-09T05:33:04.440Z,26.20
2018-07-09T05:35:35.255Z,26.30
2018-07-09T05:38:06.142Z,26.40
2018-07-09T05:40:36.955Z,26.40
2018-07-09T05:43:07.819Z,26.50
2018-07-09T05:45:38.592Z,26.40
2018-07-09T05:48:09.430Z,26.30
2018-07-09T05:50:41.205Z,26.20
2018-07-09T05:53:11.951Z,26.00
2018-07-09T05:55:42.594Z,25.80
2018-07-09T05:58:13.272Z,25.60
2018-07-09T06:00:43.963Z,25.50
2018-07-09T06:03:15.839Z,25.40
2018-07-09T06:05:46.612Z,25.20
2018-07-09T06:08:17.451Z,25.10
2018-07-09T06:10:48.197Z,24.90
2018-07-09T06:13:18.915Z,24.70
2018-07-09T06:15:49.713Z,24.60
2018-07-09T06:18:20.435Z,24.40
2018-07-09T06:20:51.189Z,24.30
2018-07-09T06:23:22.315Z,24.10
2018-07-09T06:25:53.075Z,24.00
2018-07-09T06:28:23.809Z,23.90
2018-07-09T06:30:54.521Z,23.80
2018-07-09T06:33:25.291Z,23.60
2018-07-09T06:35:57.049Z,23.40
2018-07-09T06:38:27.745Z,23.30
2018-07-09T06:40:58.392Z,23.30
2018-07-09T06:43:29.201Z,23.30
2018-07-09T06:45:59.913Z,23.30
2018-07-09T06:48:30.619Z,23.20
2018-07-09T06:51:01.469Z,23.20
2018-07-09T06:53:32.300Z,23.30
2018-07-09T06:56:03.094Z,23.50
2018-07-09T06:58:33.752Z,23.70
2018-07-09T07:01:04.453Z,24.00
2018-07-09T07:03:35.107Z,24.00
2018-07-09T07:06:05.813Z,24.00
2018-07-09T07:08:36.671Z,24.10
2018-07-09T07:11:08.075Z,24.30
2018-07-09T07:13:38.882Z,24.40
2018-07-09T07:16:09.669Z,24.60
2018-07-09T07:18:40.420Z,24.80
2018-07-09T07:21:11.111Z,25.10
2018-07-09T07:23:41.872Z,25.10
2018-07-09T07:26:12.641Z,25.30
2018-07-09T07:28:43.406Z,25.30
2018-07-09T07:31:14.209Z,25.30
2018-07-09T07:33:45.060Z,25.30
2018-07-09T07:36:15.761Z,25.40
2018-07-09T07:38:47.044Z,25.50
2018-07-09T07:41:17.887Z,25.70
2018-07-09T07:43:48.517Z,26.10
2018-07-09T07:46:19.244Z,26.40
2018-07-09T07:48:49.847Z,26.60
2018-07-09T07:51:20.575Z,26.80
2018-07-09T07:53:51.399Z,26.90
2018-07-09T07:56:22.132Z,27.10
2018-07-09T07:58:52.751Z,27.30
2018-07-09T08:01:23.521Z,27.60
2018-07-09T08:03:54.246Z,28.00
2018-07-09T08:06:25.006Z,28.30
2018-07-09T08:08:55.752Z,28.40
2018-07-09T08:11:47.731Z,28.40
2018-07-09T08:13:57.463Z,28.40
2018-07-09T08:16:28.149Z,28.60
2018-07-09T08:18:58.924Z,28.70
2018-07-09T08:21:29.658Z,28.80
2018-07-09T08:24:00.362Z,28.80
2018-07-09T08:26:31.063Z,28.50
2018-07-09T08:29:01.983Z,28.00
2018-07-09T08:31:32.711Z,27.60
2018-07-09T08:34:03.364Z,27.30
2018-07-09T08:36:34.112Z,27.10
2018-07-09T08:39:05.515Z,26.90
2018-07-09T08:41:36.238Z,26.80
2018-07-09T08:44:07.699Z,26.80
2018-07-09T08:46:38.531Z,26.90
2018-07-09T08:49:09.293Z,27.00
2018-07-09T08:54:10.136Z,27.50
2018-07-09T08:56:40.801Z,28.00
2018-07-09T08:59:11.606Z,28.30
2018-07-09T09:04:12.572Z,28.40
2018-07-09T09:06:43.320Z,28.40
2018-07-09T09:09:14.134Z,28.30
2018-07-09T09:11:44.909Z,28.20
2018-07-09T09:14:15.610Z,28.00
2018-07-09T09:16:46.356Z,28.00
2018-07-09T09:19:16.991Z,28.00
2018-07-09T09:21:47.745Z,28.00
2018-07-09T09:24:18.522Z,28.00
2018-07-09T09:26:49.351Z,27.90
2018-07-09T09:29:20.150Z,27.70
2018-07-09T09:31:50.955Z,27.60
2018-07-09T09:34:21.863Z,27.60
2018-07-09T09:36:52.570Z,27.60
2018-07-09T09:39:23.279Z,27.60
2018-07-09T09:41:54.078Z,27.60
2018-07-09T09:44:24.856Z,27.70
2018-07-09T09:46:55.466Z,27.80
2018-07-09T09:49:26.233Z,28.00
2018-07-09T09:51:57.031Z,28.00
2018-07-09T09:54:27.711Z,27.90
2018-07-09T09:56:58.447Z,27.80
2018-07-09T09:59:29.207Z,27.80
2018-07-09T10:01:59.961Z,27.50
2018-07-09T10:04:30.830Z,27.20
2018-07-09T10:07:01.545Z,27.10
2018-07-09T10:09:32.314Z,27.30
2018-07-09T10:12:03.127Z,27.40
2018-07-09T10:14:33.804Z,27.70
2018-07-09T10:17:04.677Z,28.10
2018-07-09T10:22:05.352Z,29.00
2018-07-09T10:24:36.104Z,29.50
2018-07-09T10:27:06.914Z,30.00
2018-07-09T10:29:37.559Z,30.50
2018-07-09T10:32:08.335Z,30.70
2018-07-09T10:34:39.066Z,30.90
2018-07-09T10:37:09.756Z,30.90
2018-07-09T10:39:40.472Z,30.90
2018-07-09T10:42:11.209Z,31.00
2018-07-09T10:44:41.956Z,30.90
2018-07-09T10:47:14.170Z,30.50
2018-07-09T10:49:44.852Z,30.30
2018-07-09T10:52:15.676Z,30.00
2018-07-09T10:54:46.498Z,29.80
2018-07-09T10:57:17.339Z,29.40
2018-07-09T10:59:48.005Z,29.20
2018-07-09T11:02:18.798Z,29.00
2018-07-09T11:04:49.595Z,29.10
2018-07-09T11:07:20.354Z,29.10
2018-07-09T11:09:50.999Z,29.30
2018-07-09T11:12:21.738Z,29.50
2018-07-09T11:14:52.610Z,29.40
2018-07-09T11:17:23.316Z,29.30
2018-07-09T11:19:54.065Z,29.00
2018-07-09T11:22:24.846Z,28.80
2018-07-09T11:24:55.499Z,28.20
2018-07-09T11:27:26.266Z,27.90
2018-07-09T11:29:57.068Z,27.50
2018-07-09T11:32:28.208Z,27.10
2018-07-09T11:34:59.459Z,26.90
2018-07-09T11:37:30.751Z,26.90
2018-07-09T11:40:01.595Z,27.20
2018-07-09T11:42:32.374Z,27.30
2018-07-09T11:45:03.131Z,27.50
2018-07-09T11:47:33.933Z,27.70
2018-07-09T11:50:04.827Z,27.70
2018-07-09T11:52:35.625Z,27.90
2018-07-09T11:55:06.614Z,28.10
2018-07-09T11:57:37.327Z,28.40
2018-07-09T12:00:08.298Z,28.70
2018-07-09T12:02:39.131Z,29.00
2018-07-09T12:05:10.027Z,28.90
2018-07-09T12:07:40.341Z,28.40
2018-07-09T12:10:11.089Z,28.20
2018-07-09T12:12:42.023Z,28.20
2018-07-09T12:15:12.730Z,28.30
2018-07-09T12:17:43.526Z,28.40
2018-07-09T12:20:14.251Z,28.50
2018-07-09T12:22:44.848Z,28.80
2018-07-09T12:25:15.556Z,29.10
2018-07-09T12:27:46.210Z,29.50
2018-07-09T12:30:16.941Z,29.60
2018-07-09T12:32:47.547Z,29.80
2018-07-09T12:35:18.283Z,29.80
2018-07-09T12:37:49.134Z,29.40
2018-07-09T12:40:19.942Z,29.30
2018-07-09T12:42:50.610Z,29.10
2018-07-09T12:45:21.351Z,28.90
2018-07-09T12:47:52.087Z,28.90
2018-07-09T12:52:53.232Z,29.30
2018-07-09T12:55:24.166Z,29.40
2018-07-09T12:57:54.915Z,29.30
2018-07-09T13:00:25.603Z,29.30
2018-07-09T13:02:56.342Z,29.20
2018-07-09T13:05:27.036Z,29.40
2018-07-09T13:07:57.975Z,29.80
2018-07-09T13:10:28.769Z,29.90
2018-07-09T13:12:59.533Z,30.00
2018-07-09T13:15:30.375Z,30.20
2018-07-09T13:18:00.990Z,30.20
2018-07-09T13:20:31.731Z,30.20
2018-07-09T13:23:02.691Z,30.10
2018-07-09T13:25:33.359Z,29.70
2018-07-09T13:28:04.183Z,29.30
2018-07-09T13:30:34.987Z,28.80
2018-07-09T13:33:05.760Z,28.60
2018-07-09T13:35:36.565Z,28.80
2018-07-09T13:38:07.360Z,29.00
2018-07-09T13:40:37.982Z,29.30
2018-07-09T13:43:08.696Z,29.60
2018-07-09T13:45:39.575Z,29.70
2018-07-09T13:48:10.981Z,29.50
2018-07-09T13:50:41.671Z,29.10
2018-07-09T13:53:12.291Z,28.90
2018-07-09T13:55:43.065Z,28.80
2018-07-09T13:58:13.770Z,28.60
2018-07-09T14:00:44.502Z,28.40
2018-07-09T14:03:16.370Z,28.40
2018-07-09T14:05:47.099Z,28.40
2018-07-09T14:08:17.842Z,28.20
2018-07-09T14:10:48.500Z,28.10
2018-07-09T14:13:19.277Z,28.10
2018-07-09T14:15:50.019Z,28.10
2018-07-09T14:18:24.536Z,28.00
2018-07-09T14:20:55.291Z,28.10
2018-07-09T14:23:26.150Z,28.00
2018-07-09T14:25:56.848Z,28.00
2018-07-09T14:28:27.516Z,28.00
2018-07-09T14:30:58.204Z,28.00
2018-07-09T14:33:28.844Z,28.10
2018-07-09T14:35:59.566Z,28.00
2018-07-09T14:38:30.337Z,28.00
2018-07-09T14:41:01.029Z,27.90
2018-07-09T14:43:31.692Z,27.90
2018-07-09T14:46:02.408Z,28.00
2018-07-09T14:48:33.080Z,28.10
2018-07-09T14:51:03.915Z,28.10
2018-07-09T14:53:34.592Z,27.90
2018-07-09T14:56:05.392Z,28.00
2018-07-09T14:58:36.097Z,28.20
2018-07-09T15:01:06.798Z,28.40
2018-07-09T15:03:37.496Z,28.40
2018-07-09T15:06:08.274Z,28.30
2018-07-09T15:08:39.478Z,28.20
2018-07-09T15:11:10.268Z,28.20
2018-07-09T15:13:42.983Z,28.20
2018-07-09T15:16:13.659Z,28.30
2018-07-09T15:18:45.360Z,28.40
2018-07-09T15:21:16.079Z,28.40
2018-07-09T15:23:46.802Z,28.40
2018-07-09T15:26:18.523Z,28.50
2018-07-09T15:28:49.493Z,28.60
2018-07-09T15:31:20.323Z,28.60
2018-07-09T15:33:50.951Z,28.60
2018-07-09T15:36:21.837Z,28.70
2018-07-09T15:38:52.645Z,28.70
2018-07-09T15:41:23.495Z,28.50
2018-07-09T15:44:00.511Z,28.50
2018-07-09T15:46:31.600Z,28.50
2018-07-09T15:49:02.591Z,28.60
2018-07-09T15:51:33.272Z,28.60
2018-07-09T15:54:04.034Z,28.50
2018-07-09T15:56:34.703Z,28.20
2018-07-09T15:59:05.545Z,28.20
2018-07-09T16:01:36.256Z,28.40
2018-07-09T16:04:07.075Z,28.50
2018-07-09T16:06:37.778Z,28.60
2018-07-09T16:09:08.658Z,28.70
2018-07-09T16:11:39.387Z,28.90
2018-07-09T16:14:10.182Z,29.00
2018-07-09T16:16:40.387Z,28.90
2018-07-09T16:19:10.571Z,28.70
2018-07-09T16:21:41.646Z,28.60
2018-07-09T16:24:13.423Z,28.60
2018-07-09T16:26:44.279Z,28.50
2018-07-09T16:29:15.110Z,28.50
2018-07-09T16:31:45.945Z,28.50
2018-07-09T16:34:17.700Z,28.70
2018-07-09T16:36:49.437Z,28.70
2018-07-09T16:39:20.163Z,28.70
2018-07-09T16:41:50.984Z,28.80
2018-07-09T16:44:22.784Z,29.10
2018-07-09T16:46:53.580Z,29.30
2018-07-09T16:49:24.444Z,29.60
2018-07-09T16:51:55.227Z,30.10
2018-07-09T16:54:26.147Z,31.20
2018-07-09T16:56:56.962Z,32.30
2018-07-09T16:59:27.730Z,33.10
2018-07-09T17:01:59.548Z,33.60
2018-07-09T17:04:30.784Z,34.40
2018-07-09T17:07:01.437Z,35.00
2018-07-09T17:09:32.133Z,34.50
2018-07-09T17:12:02.929Z,34.30
2018-07-09T17:14:33.847Z,33.80
2018-07-09T17:19:35.903Z,33.90
2018-07-09T17:22:06.642Z,33.10
2018-07-09T17:24:37.510Z,32.00
2018-07-09T17:27:08.345Z,31.00
2018-07-09T17:29:39.066Z,29.90
2018-07-09T17:32:09.889Z,29.00
2018-07-09T17:34:40.747Z,28.30
2018-07-09T17:37:11.652Z,28.00
2018-07-09T17:39:42.399Z,28.10
2018-07-09T17:42:13.148Z,28.40
2018-07-09T17:44:43.922Z,28.50
2018-07-09T17:47:14.629Z,28.60
2018-07-09T17:49:45.425Z,28.50
2018-07-09T17:52:17.551Z,28.00
2018-07-09T17:54:48.338Z,27.30
2018-07-09T17:57:21.158Z,26.90
2018-07-09T17:59:52.381Z,26.60
2018-07-09T18:02:24.140Z,27.00
2018-07-09T18:04:57.512Z,27.40
2018-07-09T18:07:28.511Z,28.30
2018-07-09T18:09:59.201Z,29.70
2018-07-09T18:12:30.067Z,30.90
2018-07-09T18:15:00.876Z,31.80
2018-07-09T18:17:31.622Z,32.50
2018-07-09T18:20:02.385Z,33.30
2018-07-09T18:22:38.229Z,33.30
2018-07-09T18:25:11.164Z,32.70
2018-07-09T18:27:42.860Z,31.80
2018-07-09T18:30:13.723Z,30.70
2018-07-09T18:32:44.643Z,29.60
2018-07-09T18:35:15.525Z,28.60
2018-07-09T18:37:46.240Z,28.00
2018-07-09T18:40:16.885Z,27.40
2018-07-09T18:42:48.576Z,26.60
2018-07-09T18:45:20.257Z,26.00
2018-07-09T18:47:52.055Z,25.50
2018-07-09T18:50:23.867Z,25.20
2018-07-09T18:52:54.726Z,24.80
2018-07-09T18:55:25.542Z,24.60
2018-07-09T18:57:56.168Z,24.30
2018-07-09T19:00:27.795Z,24.10
2018-07-09T19:02:58.652Z,23.80
2018-07-09T19:05:43.028Z,23.70
2018-07-09T19:08:13.915Z,23.50
2018-07-09T19:10:45.099Z,23.30
2018-07-09T19:13:15.862Z,23.10
2018-07-09T19:15:47.699Z,22.90
2018-07-09T19:18:29.770Z,22.70
2018-07-09T19:21:37.264Z,22.60
2018-07-09T19:24:07.807Z,22.50
2018-07-09T19:26:38.468Z,22.50
2018-07-09T19:29:07.617Z,22.50
2018-07-09T19:31:36.873Z,22.40
2018-07-09T19:34:06.079Z,22.40
2018-07-09T19:36:35.215Z,22.30
2018-07-09T19:39:05.077Z,22.30
2018-07-09T19:41:35.287Z,22.30
2018-07-09T19:44:04.356Z,22.30
2018-07-09T19:46:33.604Z,22.20
2018-07-09T19:49:02.795Z,22.20
2018-07-09T19:51:31.914Z,22.10
2018-07-09T19:54:01.064Z,22.00
2018-07-09T19:56:30.268Z,21.90
2018-07-09T19:58:59.439Z,21.90
2018-07-09T20:01:28.671Z,21.80
2018-07-09T20:03:57.828Z,21.70
2018-07-09T20:06:27.050Z,21.60
2018-07-09T20:09:01.257Z,21.40
2018-07-09T20:11:44.120Z,21.30
2018-07-09T20:14:18.427Z,21.20
2018-07-09T20:16:52.711Z,21.20
2018-07-09T20:19:21.832Z,21.10
2018-07-09T20:21:50.993Z,21.20
2018-07-09T20:24:20.188Z,21.20
2018-07-09T20:26:49.321Z,21.30
2018-07-09T20:29:18.552Z,21.20
2018-07-09T20:31:47.646Z,21.20
2018-07-09T20:34:16.729Z,21.10
2018-07-09T20:36:45.822Z,21.10
2018-07-09T20:39:14.980Z,21.00
2018-07-09T20:41:44.169Z,21.00
2018-07-09T20:44:13.336Z,21.00
2018-07-09T20:46:42.477Z,20.90
2018-07-09T20:49:11.602Z,20.90
2018-07-09T20:51:40.814Z,20.80
2018-07-09T20:54:09.988Z,20.80
2018-07-09T20:56:39.228Z,20.70
2018-07-09T20:59:08.390Z,20.60
2018-07-09T21:01:37.585Z,20.50
2018-07-09T21:04:11.646Z,20.50
2018-07-09T21:06:40.752Z,20.40
2018-07-09T21:09:10.045Z,20.20
2018-07-09T21:11:39.262Z,20.10
2018-07-09T21:14:08.479Z,20.00
2018-07-09T21:16:37.688Z,19.90
2018-07-09T21:19:06.951Z,19.80
2018-07-09T21:21:36.033Z,19.80
2018-07-09T21:24:06.195Z,19.60
2018-07-09T21:26:35.307Z,19.50
2018-07-09T21:29:04.585Z,19.50
2018-07-09T21:31:33.716Z,19.40
2018-07-09T21:34:02.887Z,19.30
2018-07-09T21:36:32.053Z,19.30
2018-07-09T21:39:01.191Z,19.30
2018-07-09T21:41:30.456Z,19.30
2018-07-09T21:43:59.530Z,19.30
2018-07-09T21:46:28.748Z,19.30
2018-07-09T21:48:57.932Z,19.30
2018-07-09T21:51:27.099Z,19.30
2018-07-09T21:53:56.275Z,19.30
2018-07-09T21:56:25.526Z,19.20
2018-07-09T21:58:54.624Z,19.20
2018-07-09T22:01:23.887Z,19.20
2018-07-09T22:03:52.960Z,19.20
2018-07-09T22:08:51.351Z,19.10
2018-07-09T22:11:20.420Z,19.10
2018-07-09T22:13:49.597Z,19.10
2018-07-09T22:16:18.712Z,19.00
2018-07-09T22:18:47.829Z,19.00
2018-07-09T22:21:17.029Z,19.00
2018-07-09T22:23:46.231Z,19.00
2018-07-09T22:26:15.387Z,19.00
2018-07-09T22:28:44.482Z,19.00
2018-07-09T22:31:15.267Z,19.00
2018-07-09T22:33:45.965Z,19.00
2018-07-09T22:36:21.634Z,19.10
2018-07-09T22:38:52.362Z,19.00
2018-07-09T22:41:23.135Z,19.00
2018-07-09T22:44:04.603Z,19.00
2018-07-09T22:46:35.288Z,19.00
2018-07-09T22:49:06.180Z,19.00
2018-07-09T22:51:36.959Z,18.90
2018-07-09T22:54:07.706Z,18.90
2018-07-09T22:56:38.447Z,18.90
2018-07-09T22:59:09.192Z,18.90
2018-07-09T23:01:39.863Z,18.80
2018-07-09T23:04:10.730Z,18.80
2018-07-09T23:06:41.525Z,18.90
2018-07-09T23:09:26.880Z,18.90
2018-07-09T23:13:31.030Z,18.90
2018-07-09T23:16:42.177Z,18.90
2018-07-09T23:19:26.821Z,18.90
2018-07-09T23:22:08.317Z,18.90
2018-07-09T23:24:37.468Z,18.80
2018-07-09T23:27:06.579Z,18.80
2018-07-09T23:29:36.718Z,18.80
2018-07-09T23:32:05.815Z,18.80
2018-07-09T23:34:35.027Z,18.80
2018-07-09T23:37:04.163Z,18.80
2018-07-09T23:39:33.353Z,18.80
2018-07-09T23:42:02.531Z,18.80
2018-07-09T23:44:31.632Z,18.80
2018-07-09T23:47:00.750Z,18.80
2018-07-09T23:49:29.907Z,18.80
2018-07-09T23:51:59.033Z,18.90
2018-07-09T23:54:28.181Z,18.80
2018-07-09T23:59:08.979Z,18.90
